Aviation Digital Data Service (ADDS)

Aviation Digital Data Service (ADDS)

Output produced by METARs form (0329 UTC 14 May 2011)
found at http://aviationweather.gov/adds/metars/index.php

RJFR 140304Z 28016G26KT 250V320 CAVOK 23/07 Q1011 RMK A2986
RJFR 140300Z 28016KT CAVOK 23/03 Q1011
RJFR 140200Z 28016G26KT CAVOK 22/05 Q1011
RJFR 140100Z 27010KT CAVOK 22/06 Q1010
RJFR 140000Z 25014KT CAVOK 20/07 Q1010
RJFR 132300Z 26017KT CAVOK 19/08 Q1009
RJFR 132200Z 25020KT CAVOK 17/09 Q1009
RJFR 132100Z 26021KT CAVOK 17/07 Q1009
RJFR 132000Z 26017KT 9999 FEW035 SCT/// 17/06 Q1008
RJFR 131900Z 26019KT CAVOK 17/07 Q1007
RJFR 131800Z 26018KT CAVOK 17/08 Q1007
RJFR 131700Z 26020KT CAVOK 17/08 Q1007
RJFR 131600Z 26023KT CAVOK 18/07 Q1007
RJFR 131500Z 26023KT CAVOK 18/08 Q1007
RJFR 131400Z 26023KT CAVOK 18/07 Q1007
RJFR 131300Z 26024KT CAVOK 19/06 Q1007
RJFR 131200Z 25021KT CAVOK 19/07 Q1006
RJFR 131100Z 26020KT CAVOK 19/06 Q1005
RJFR 131000Z 26018KT CAVOK 20/06 Q1005
RJFR 130900Z 26024KT CAVOK 21/05 Q1004
RJFR 130800Z 26020KT CAVOK 21/04 Q1004
RJFR 130704Z 26016G29KT 9999 FEW035 22/05 Q1004 RMK 1CU035 A2967
RJFR 130700Z 26015KT 9999 FEW035 22/05 Q1004
RJFR 130600Z 25018KT 9999 FEW035 22/07 Q1005
RJFR 130510Z 27015G25KT 9999 FEW035 SCT/// 22/07 Q1005 RMK 1CU035 A2969
RJFR 130500Z 26015KT 240V310 9999 FEW035 SCT/// 21/07 Q1005
RJFR 130400Z 26016KT 9999 FEW035 SCT/// 21/07 Q1006
RJFR 130300Z 25015KT 9999 FEW035 BKN/// 20/06 Q1006
RJFR 130200Z 25015KT CAVOK 19/08 Q1006
RJFR 130100Z 27015KT CAVOK 19/07 Q1006
RJFR 130000Z 26015KT CAVOK 18/06 Q1006
RJFR 122300Z 26011KT CAVOK 17/07 Q1006
RJFR 122200Z 25011KT CAVOK 16/08 Q1006
RJFR 122100Z 25013KT CAVOK 16/08 Q1005
RJFR 122000Z 25010KT 220V310 9999 FEW030 BKN/// 16/09 Q1005
RJFR 121900Z 26013KT 9999 FEW020 SCT035 17/10 Q1004
RJFR 121800Z 25016KT 9999 FEW020 BKN035 17/12 Q1004
RJFR 121700Z 25016KT 9999 FEW025 BKN040 18/14 Q1003
RJFR 121600Z 25018KT 9999 FEW010 BKN030 18/15 Q1003